Time;durP1;ratioP1;P1;durP2;ratioP2;P2;SDS_P1;SDS_P2;PMS_P1;PMS_P2;Temp;Humidity;BMP_temperature;BMP_pressure;BME280_temperature;BME280_humidity;BME280_pressure;Samples;Min_cycle;Max_cycle;Signal;HPM_P1;HPM_P2
2022/05/09 00:00:06;;;;;;;8.43;5.32;;;16.80;66.30;;;;;;5013562;28;20030;-67
2022/05/09 00:02:32;;;;;;;7.60;5.43;;;18.50;76.80;;;;;;5010378;28;20028;-67
2022/05/09 00:04:58;;;;;;;8.80;6.03;;;18.90;79.60;;;;;;5014861;28;20038;-67
2022/05/09 00:07:24;;;;;;;9.98;5.95;;;;;;;;;;5021226;28;20026;-67
2022/05/09 00:09:50;;;;;;;8.73;5.70;;;;;;;;;;5008725;28;20033;-67
2022/05/09 00:12:16;;;;;;;9.18;5.38;;;;;;;;;;5014723;28;20060;-67
2022/05/09 00:14:42;;;;;;;7.82;5.30;;;17.20;77.50;;;;;;5010537;28;20080;-67
2022/05/09 00:17:08;;;;;;;7.95;5.57;;;18.00;65.20;;;;;;5023254;28;20029;-68
2022/05/09 00:19:34;;;;;;;6.70;4.57;;;;;;;;;;5022029;28;20428;-67
2022/05/09 00:22:00;;;;;;;8.02;4.72;;;;;;;;;;5016570;28;20032;-67
2022/05/09 00:24:26;;;;;;;7.00;4.57;;;17.10;77.10;;;;;;5014112;28;20025;-67
2022/05/09 00:26:53;;;;;;;7.57;4.80;;;18.30;64.10;;;;;;5011363;28;20428;-67
2022/05/09 00:29:20;;;;;;;8.93;5.05;;;16.90;76.10;;;;;;5022222;28;20034;-67
2022/05/09 00:31:48;;;;;;;8.70;5.25;;;14.00;75.20;;;;;;5022891;28;20017;-67
2022/05/09 00:34:18;;;;;;;10.73;5.60;;;16.80;77.00;;;;;;5015571;28;20037;-67
2022/05/09 00:36:45;;;;;;;8.25;5.55;;;17.10;76.20;;;;;;5018096;28;20029;-67
2022/05/09 00:39:12;;;;;;;9.35;5.85;;;13.90;63.70;;;;;;5010594;28;20052;-67
2022/05/09 00:41:40;;;;;;;10.18;5.70;;;16.70;76.90;;;;;;5019006;28;20025;-67
2022/05/09 00:44:15;;;;;;;9.45;5.40;;;13.80;75.30;;;;;;5014907;28;20037;-67
2022/05/09 00:46:44;;;;;;;9.45;6.15;;;16.80;77.10;;;;;;5012600;28;20536;-67
2022/05/09 00:49:34;;;;;;;9.90;5.50;;;16.80;63.80;;;;;;5012938;28;20049;-67
2022/05/09 00:52:16;;;;;;;8.55;5.75;;;16.50;76.40;;;;;;5008052;28;20544;-67
2022/05/09 00:54:47;;;;;;;9.05;6.03;;;17.00;77.30;;;;;;5013709;28;20483;-67
2022/05/09 00:57:38;;;;;;;9.65;5.90;;;16.80;76.90;;;;;;5019686;28;20017;-68
2022/05/09 01:00:15;;;;;;;8.93;5.70;;;17.90;78.80;;;;;;5001486;28;20030;-67
2022/05/09 01:02:49;;;;;;;8.95;6.03;;;16.70;63.70;;;;;;5008133;28;20513;-67
2022/05/09 01:05:16;;;;;;;11.55;5.40;;;16.20;77.80;;;;;;5008292;28;20505;-67
2022/05/09 01:07:43;;;;;;;8.07;5.32;;;16.60;63.60;;;;;;5024126;28;20083;-67
2022/05/09 01:10:15;;;;;;;8.80;5.63;;;17.00;76.90;;;;;;5022550;28;20456;-67
2022/05/09 01:12:43;;;;;;;9.60;5.45;;;17.30;76.20;;;;;;5009760;28;20413;-67
2022/05/09 01:15:13;;;;;;;8.70;5.70;;;18.00;64.60;;;;;;5012420;28;20045;-67
2022/05/09 01:17:40;;;;;;;8.77;5.93;;;17.00;77.80;;;;;;5019415;28;20832;-67
2022/05/09 01:20:08;;;;;;;7.68;5.40;;;16.30;75.90;;;;;;5008934;28;20045;-67
2022/05/09 01:22:35;;;;;;;8.40;5.70;;;14.50;63.60;;;;;;5024384;28;20096;-67
2022/05/09 01:25:05;;;;;;;8.68;5.57;;;16.60;77.30;;;;;;5014527;28;20034;-67
2022/05/09 01:27:31;;;;;;;8.98;5.70;;;17.80;77.70;;;;;;5015942;28;20496;-67
2022/05/09 01:30:09;;;;;;;8.40;5.78;;;17.70;77.30;;;;;;5014163;28;20061;-67
2022/05/09 01:32:46;;;;;;;11.77;6.22;;;16.30;63.50;;;;;;5012026;28;20076;-67
2022/05/09 01:35:40;;;;;;;11.25;5.70;;;16.30;76.50;;;;;;5007311;28;20041;-67
2022/05/09 01:38:24;;;;;;;8.55;5.93;;;16.80;63.80;;;;;;5007115;28;20057;-67
2022/05/09 01:40:50;;;;;;;9.05;6.22;;;17.50;78.00;;;;;;5018035;28;20771;-67
2022/05/09 01:43:38;;;;;;;9.27;6.35;;;17.10;79.50;;;;;;5020572;28;20080;-67
2022/05/09 01:46:13;;;;;;;9.88;6.80;;;15.70;78.30;;;;;;5015389;28;20120;-67
2022/05/09 01:51:24;;;;;;;9.23;5.93;;;16.40;78.80;;;;;;5011331;28;20050;-67
2022/05/09 01:53:50;;;;;;;11.45;6.70;;;14.20;78.30;;;;;;5009764;28;20401;-67
2022/05/09 01:56:17;;;;;;;11.07;7.15;;;13.50;77.30;;;;;;5019372;28;20037;-67
2022/05/09 01:58:43;;;;;;;9.48;6.40;;;17.50;78.10;;;;;;5012382;28;20026;-67
2022/05/09 02:01:09;;;;;;;8.68;5.88;;;16.00;64.50;;;;;;5021985;28;20162;-67
2022/05/09 02:03:35;;;;;;;10.10;6.53;;;16.00;78.20;;;;;;5019354;28;20497;-67
2022/05/09 02:06:01;;;;;;;9.35;6.50;;;16.80;80.10;;;;;;5016696;28;20434;-67
2022/05/09 02:08:27;;;;;;;9.57;6.07;;;;;;;;;;5019306;28;20465;-67
2022/05/09 02:10:56;;;;;;;10.65;5.90;;;16.00;78.10;;;;;;5007676;28;20481;-67
2022/05/09 02:13:21;;;;;;;9.25;6.20;;;15.80;78.60;;;;;;5011510;28;20033;-67
2022/05/09 02:15:50;;;;;;;11.02;6.53;;;13.00;77.60;;;;;;5011189;28;20049;-67
2022/05/09 02:18:17;;;;;;;8.98;6.50;;;16.40;79.00;;;;;;5014785;28;20029;-67
2022/05/09 02:20:42;;;;;;;9.77;6.85;;;15.40;78.40;;;;;;5020521;28;20182;-67
2022/05/09 02:23:08;;;;;;;9.75;6.53;;;15.40;78.60;;;;;;5025064;28;20101;-67
2022/05/09 02:25:36;;;;;;;11.75;6.53;;;;;;;;;;5016002;28;20099;-67
2022/05/09 02:28:06;;;;;;;10.50;6.80;;;16.30;78.00;;;;;;5024380;28;20041;-67
2022/05/09 02:30:32;;;;;;;10.52;6.32;;;15.90;76.50;;;;;;5022216;28;20036;-67
2022/05/09 02:32:58;;;;;;;10.45;6.55;;;15.40;76.80;;;;;;5016760;28;20033;-67
2022/05/09 02:35:24;;;;;;;10.85;7.20;;;16.40;78.30;;;;;;5021237;28;20113;-67
2022/05/09 02:37:52;;;;;;;10.63;7.50;;;15.30;78.30;;;;;;5023592;28;20394;-67
2022/05/09 02:40:18;;;;;;;12.43;7.93;;;15.40;78.70;;;;;;5011912;28;20057;-67
2022/05/09 02:42:44;;;;;;;11.80;7.88;;;;;;;;;;5020217;28;20025;-67
2022/05/09 02:45:11;;;;;;;10.98;7.28;;;15.30;80.20;;;;;;5020594;28;20100;-67
2022/05/09 02:47:36;;;;;;;10.05;7.72;;;15.50;80.00;;;;;;5010149;28;20551;-67
2022/05/09 02:50:03;;;;;;;9.88;7.50;;;15.00;69.10;;;;;;5010640;28;20060;-67
2022/05/09 02:52:29;;;;;;;13.25;7.22;;;;;;;;;;5012275;28;20116;-68
2022/05/09 02:54:55;;;;;;;10.85;7.25;;;16.60;80.40;;;;;;5018087;28;20169;-67
2022/05/09 02:57:20;;;;;;;10.30;7.15;;;15.60;79.90;;;;;;5016893;28;20112;-68
2022/05/09 02:59:46;;;;;;;9.95;7.10;;;15.90;80.20;;;;;;5020084;28;20029;-67
2022/05/09 03:02:12;;;;;;;11.65;7.30;;;16.30;80.50;;;;;;5010331;28;20037;-67
2022/05/09 03:04:41;;;;;;;10.02;7.38;;;12.90;79.30;;;;;;5018902;28;20049;-67
2022/05/09 03:07:16;;;;;;;11.70;7.00;;;15.50;79.90;;;;;;5013786;28;20556;-68
2022/05/09 03:09:44;;;;;;;9.63;6.93;;;16.20;79.10;;;;;;5011405;28;20038;-67
2022/05/09 03:12:11;;;;;;;11.13;6.50;;;16.30;69.00;;;;;;5015620;28;20017;-68
2022/05/09 03:14:37;;;;;;;11.15;7.90;;;16.40;80.40;;;;;;5013294;28;20058;-68
2022/05/09 03:17:06;;;;;;;12.68;7.75;;;14.90;79.10;;;;;;5018291;28;20160;-68
2022/05/09 03:19:33;;;;;;;13.90;8.07;;;;;;;;;;5010904;28;20033;-68
2022/05/09 03:21:59;;;;;;;10.35;6.50;;;14.80;77.40;;;;;;5016021;28;20108;-68
2022/05/09 03:24:25;;;;;;;8.77;6.40;;;15.60;78.20;;;;;;5015663;28;20112;-68
2022/05/09 03:26:51;;;;;;;10.77;6.90;;;15.60;81.70;;;;;;5010007;28;20021;-68
2022/05/09 03:29:18;;;;;;;13.02;7.75;;;14.90;79.60;;;;;;5019232;28;20037;-68
2022/05/09 03:31:47;;;;;;;14.35;8.88;;;16.10;81.30;;;;;;5009749;28;20038;-67
2022/05/09 03:34:14;;;;;;;11.20;7.90;;;14.70;81.20;;;;;;5025377;28;20523;-67
2022/05/09 03:36:40;;;;;;;12.45;8.10;;;;;;;;;;5015755;28;20026;-67
2022/05/09 03:39:06;;;;;;;11.65;8.05;;;15.30;82.10;;;;;;5015693;28;20029;-67
2022/05/09 03:41:33;;;;;;;15.55;8.38;;;14.70;66.40;;;;;;5009724;28;20447;-67
2022/05/09 03:43:58;;;;;;;12.45;8.68;;;15.00;82.40;;;;;;5014465;28;20104;-67
2022/05/09 03:46:24;;;;;;;12.25;8.82;;;16.10;84.50;;;;;;5016294;28;20131;-67
2022/05/09 03:48:50;;;;;;;15.30;9.25;;;15.90;73.10;;;;;;5019476;28;20052;-67
2022/05/09 03:51:15;;;;;;;15.50;9.38;;;15.30;74.60;;;;;;5012323;28;20022;-67
2022/05/09 03:53:41;;;;;;;14.85;9.90;;;12.50;83.50;;;;;;5009754;28;20034;-67
2022/05/09 03:56:08;;;;;;;17.38;10.00;;;14.60;67.90;;;;;;5014202;28;20042;-68
2022/05/09 03:58:34;;;;;;;16.25;10.00;;;14.60;68.50;;;;;;5026598;28;20029;-68
2022/05/09 04:01:00;;;;;;;18.73;11.15;;;15.90;86.50;;;;;;5002706;28;20038;-67
2022/05/09 04:03:26;;;;;;;17.33;11.25;;;15.80;85.20;;;;;;5015140;28;20029;-67
2022/05/09 04:05:53;;;;;;;26.77;12.18;;;15.60;87.20;;;;;;5018125;28;20445;-68
2022/05/09 04:08:22;;;;;;;33.92;11.57;;;14.60;88.50;;;;;;5015294;28;20029;-67
2022/05/09 04:10:51;;;;;;;17.27;10.57;;;14.40;88.10;;;;;;5007432;28;20140;-68
2022/05/09 04:13:17;;;;;;;18.48;11.20;;;14.50;88.60;;;;;;5020257;28;20131;-67
2022/05/09 04:18:37;;;;;;;21.38;11.00;;;14.50;81.30;;;;;;5017229;28;20629;-67
2022/05/09 04:21:04;;;;;;;28.55;11.25;;;15.70;90.00;;;;;;5016917;28;20053;-67
2022/05/09 04:23:29;;;;;;;27.48;10.85;;;12.20;87.50;;;;;;5009653;28;20947;-67
2022/05/09 04:25:55;;;;;;;20.25;10.90;;;;;;;;;;5014650;28;20030;-67
2022/05/09 04:28:22;;;;;;;16.48;11.23;;;;;;;;;;5012790;28;20509;-67
2022/05/09 04:30:48;;;;;;;21.25;11.57;;;14.50;89.40;;;;;;5009663;28;20052;-67
2022/05/09 04:33:15;;;;;;;18.40;10.88;;;14.60;89.60;;;;;;5012386;28;20086;-67
2022/05/09 04:35:42;;;;;;;17.63;11.10;;;14.60;71.10;;;;;;5013749;28;20029;-67
2022/05/09 04:38:14;;;;;;;18.35;12.35;;;15.10;90.50;;;;;;5010791;28;20022;-67
2022/05/09 04:40:41;;;;;;;19.33;11.57;;;;;;;;;;5007811;28;20122;-67
2022/05/09 04:43:07;;;;;;;19.00;11.07;;;13.10;90.30;;;;;;5007518;28;20065;-67
2022/05/09 04:45:33;;;;;;;18.60;11.30;;;14.00;90.50;;;;;;5009834;28;20076;-67
2022/05/09 04:47:59;;;;;;;17.70;10.88;;;14.40;90.50;;;;;;5012624;28;20061;-68
2022/05/09 04:50:26;;;;;;;20.85;10.90;;;14.60;70.60;;;;;;5007438;28;20030;-67
2022/05/09 04:52:52;;;;;;;19.35;11.18;;;14.70;90.20;;;;;;5009776;28;20089;-66
2022/05/09 04:55:18;;;;;;;18.23;11.18;;;14.50;72.80;;;;;;5008683;28;20034;-67
2022/05/09 04:57:47;;;;;;;16.15;10.50;;;14.40;86.20;;;;;;5022153;28;20029;-65
2022/05/09 05:00:15;;;;;;;35.15;10.75;;;14.90;87.70;;;;;;5009892;28;20473;-65
2022/05/09 05:02:41;;;;;;;37.10;10.43;;;14.40;85.70;;;;;;5009502;28;20054;-65
2022/05/09 05:05:08;;;;;;;28.23;9.85;;;14.90;88.10;;;;;;5007829;28;20450;-65
2022/05/09 05:07:34;;;;;;;34.38;10.95;;;15.00;74.00;;;;;;5015968;28;20033;-69
2022/05/09 05:10:00;;;;;;;35.30;10.90;;;14.80;79.90;;;;;;5006580;28;20041;-66
2022/05/09 05:12:27;;;;;;;30.67;10.68;;;15.90;88.40;;;;;;5007936;28;20104;-66
2022/05/09 05:14:52;;;;;;;26.40;10.52;;;14.30;71.70;;;;;;5007689;28;20054;-66
2022/05/09 05:17:18;;;;;;;19.65;10.20;;;15.80;86.70;;;;;;5000240;28;20025;-67
2022/05/09 05:19:45;;;;;;;20.00;10.45;;;14.60;86.00;;;;;;5006009;28;20739;-68
2022/05/09 05:22:15;;;;;;;20.25;10.13;;;15.10;85.70;;;;;;5008224;28;20030;-68
2022/05/09 05:24:43;;;;;;;15.68;10.00;;;15.60;85.60;;;;;;5006934;28;20041;-68
2022/05/09 05:27:09;;;;;;;16.58;10.57;;;;;;;;;;5007365;28;20114;-68
2022/05/09 05:29:35;;;;;;;16.27;10.38;;;16.20;79.90;;;;;;5006705;28;20715;-68
2022/05/09 05:32:12;;;;;;;12.93;9.85;;;15.90;75.70;;;;;;5005061;28;20026;-67
2022/05/09 05:34:37;;;;;;;14.65;10.07;;;12.40;85.90;;;;;;5012345;28;20130;-68
2022/05/09 05:37:03;;;;;;;15.45;10.23;;;16.00;87.00;;;;;;5010567;28;20105;-68
2022/05/09 05:39:31;;;;;;;15.88;9.57;;;;;;;;;;5007760;28;20033;-68
2022/05/09 05:41:56;;;;;;;18.15;10.93;;;15.00;86.10;;;;;;5010100;28;20481;-68
2022/05/09 05:44:22;;;;;;;15.18;11.02;;;13.00;84.50;;;;;;5019031;28;20104;-67
2022/05/09 05:46:48;;;;;;;16.88;9.93;;;15.60;85.90;;;;;;5013364;28;20026;-67
2022/05/09 05:49:14;;;;;;;16.83;10.07;;;14.30;85.50;;;;;;5009377;28;20049;-67
2022/05/09 05:51:40;;;;;;;15.38;11.00;;;;;;;;;;5009882;28;20534;-67
2022/05/09 05:54:05;;;;;;;23.42;12.82;;;16.70;78.10;;;;;;5008829;28;20080;-67
2022/05/09 05:56:33;;;;;;;25.17;12.60;;;15.90;71.40;;;;;;5007438;28;20038;-67
2022/05/09 05:58:59;;;;;;;21.92;12.88;;;;;;;;;;5024027;28;20038;-67
2022/05/09 06:01:25;;;;;;;21.58;13.43;;;14.40;86.90;;;;;;5015817;28;20157;-67
2022/05/09 06:03:51;;;;;;;19.92;13.60;;;17.10;87.60;;;;;;5017808;28;20125;-67
2022/05/09 06:06:17;;;;;;;28.30;13.27;;;16.40;86.90;;;;;;5018641;28;20080;-67
2022/05/09 06:08:44;;;;;;;21.83;12.90;;;16.60;88.20;;;;;;5017437;28;20026;-67
2022/05/09 06:11:10;;;;;;;35.50;14.45;;;17.70;88.30;;;;;;5008889;28;20030;-67
2022/05/09 06:13:37;;;;;;;23.10;13.10;;;17.10;84.90;;;;;;5011293;28;20053;-67
2022/05/09 06:16:03;;;;;;;46.08;14.63;;;16.80;87.00;;;;;;5012343;28;20061;-67
2022/05/09 06:18:28;;;;;;;24.60;13.77;;;17.20;86.40;;;;;;5014581;28;20040;-67
2022/05/09 06:20:54;;;;;;;22.48;13.68;;;17.10;86.30;;;;;;5015889;28;20030;-67
2022/05/09 06:23:20;;;;;;;21.90;14.52;;;17.50;79.00;;;;;;5007899;28;20033;-67
2022/05/09 06:25:48;;;;;;;23.42;13.30;;;18.80;83.20;;;;;;5019268;28;20481;-67
2022/05/09 06:28:16;;;;;;;26.15;13.63;;;18.30;80.80;;;;;;5011709;28;20041;-67
2022/05/09 06:30:43;;;;;;;22.73;14.38;;;19.10;62.60;;;;;;5009974;28;20111;-67
2022/05/09 06:33:09;;;;;;;23.02;13.88;;;19.70;75.20;;;;;;5011946;28;20107;-67
2022/05/09 06:35:43;;;;;;;21.73;14.20;;;19.30;72.90;;;;;;5018313;28;20124;-67
2022/05/09 06:38:14;;;;;;;21.83;13.98;;;20.50;72.30;;;;;;5005923;28;20080;-67
2022/05/09 06:40:41;;;;;;;20.73;13.38;;;22.50;65.30;;;;;;5007694;28;20034;-67
2022/05/09 06:43:07;;;;;;;24.65;13.88;;;20.60;68.10;;;;;;5021087;28;20041;-67
2022/05/09 06:45:33;;;;;;;22.75;13.77;;;20.10;66.50;;;;;;5011391;28;20429;-67
2022/05/09 06:47:59;;;;;;;22.02;13.70;;;20.70;65.90;;;;;;5007874;28;20432;-67
2022/05/09 06:50:30;;;;;;;21.85;14.00;;;21.50;64.50;;;;;;5007279;28;20169;-67
2022/05/09 06:52:56;;;;;;;21.05;13.90;;;22.00;62.60;;;;;;5007145;28;20030;-67
2022/05/09 06:55:22;;;;;;;26.58;14.05;;;22.20;51.30;;;;;;5021741;28;20025;-67
2022/05/09 06:57:49;;;;;;;24.20;13.93;;;23.70;59.50;;;;;;5017277;28;20060;-67
2022/05/09 07:00:18;;;;;;;25.45;15.18;;;23.60;48.10;;;;;;5018556;28;20090;-67
2022/05/09 07:02:45;;;;;;;33.40;14.60;;;;;;;;;;5018183;28;20056;-67
2022/05/09 07:05:13;;;;;;;24.35;14.88;;;24.00;56.50;;;;;;5024137;28;20044;-67
2022/05/09 07:07:40;;;;;;;22.75;13.13;;;;;;;;;;5026738;28;20021;-67
2022/05/09 07:10:06;;;;;;;23.50;14.05;;;24.00;55.20;;;;;;5011674;28;20080;-67
2022/05/09 07:12:39;;;;;;;20.48;13.48;;;23.30;56.50;;;;;;5016393;28;20033;-67
2022/05/09 07:15:05;;;;;;;23.77;14.00;;;24.40;58.40;;;;;;5014542;28;20045;-67
2022/05/09 07:17:31;;;;;;;20.25;13.52;;;24.20;57.00;;;;;;5022460;28;20091;-67
2022/05/09 07:19:57;;;;;;;22.00;12.90;;;23.80;58.00;;;;;;5026487;28;20018;-67
2022/05/09 07:22:22;;;;;;;19.33;11.57;;;23.00;55.80;;;;;;5011157;28;20077;-67
2022/05/09 07:24:49;;;;;;;20.85;13.57;;;24.00;57.90;;;;;;5020198;28;20053;-67
2022/05/09 07:27:14;;;;;;;18.20;11.98;;;23.80;58.00;;;;;;5021859;28;20025;-67
2022/05/09 07:29:41;;;;;;;20.85;13.23;;;19.70;56.50;;;;;;5021446;28;20547;-67
2022/05/09 07:32:07;;;;;;;20.38;12.93;;;22.80;60.10;;;;;;5025326;28;20129;-67
2022/05/09 07:34:33;;;;;;;16.20;11.82;;;;;;;;;;5016519;28;20144;-67
2022/05/09 07:36:59;;;;;;;21.85;13.20;;;22.40;60.20;;;;;;5022244;28;20407;-67
2022/05/09 07:39:25;;;;;;;19.30;12.45;;;23.10;61.90;;;;;;5014518;28;20022;-67
2022/05/09 07:41:50;;;;;;;23.92;12.55;;;23.60;64.40;;;;;;5012077;28;20036;-67
2022/05/09 07:44:16;;;;;;;19.15;12.38;;;23.20;61.90;;;;;;5013665;28;20559;-67
2022/05/09 07:46:42;;;;;;;18.75;11.70;;;;;;;;;;5026427;28;20112;-67
2022/05/09 07:49:07;;;;;;;22.13;13.02;;;22.40;62.00;;;;;;5023688;28;20730;-67
2022/05/09 07:51:37;;;;;;;18.48;12.07;;;21.90;63.20;;;;;;5013125;28;20088;-67
2022/05/09 07:54:03;;;;;;;20.42;12.75;;;22.10;63.40;;;;;;5013645;28;20022;-67
2022/05/09 07:56:29;;;;;;;16.75;11.10;;;;;;;;;;5022032;28;20017;-67
2022/05/09 07:58:55;;;;;;;18.52;12.00;;;22.30;62.10;;;;;;5014004;28;20038;-67
2022/05/09 08:01:21;;;;;;;19.65;11.15;;;;;;;;;;5025986;28;20032;-67
2022/05/09 08:03:46;;;;;;;19.27;11.32;;;23.00;61.20;;;;;;5020951;28;20033;-67
2022/05/09 08:06:12;;;;;;;18.27;10.68;;;22.70;61.90;;;;;;5020738;28;20022;-67
2022/05/09 08:08:40;;;;;;;21.40;11.98;;;23.50;62.10;;;;;;5020430;28;20072;-67
2022/05/09 08:11:06;;;;;;;20.08;12.43;;;23.40;60.70;;;;;;5010107;28;20153;-67
2022/05/09 08:13:34;;;;;;;21.63;11.60;;;22.90;61.10;;;;;;5013051;28;20120;-67
2022/05/09 08:16:03;;;;;;;21.77;12.20;;;24.00;60.40;;;;;;5014167;28;20046;-67
2022/05/09 08:18:30;;;;;;;17.30;10.55;;;23.50;59.20;;;;;;5016618;28;20508;-67
2022/05/09 08:20:57;;;;;;;16.05;10.68;;;24.20;57.20;;;;;;5017417;28;20109;-67
2022/05/09 08:23:23;;;;;;;19.70;11.60;;;25.00;57.10;;;;;;5009784;28;20041;-67
2022/05/09 08:25:51;;;;;;;15.13;11.07;;;25.50;55.00;;;;;;5025182;28;20811;-67
2022/05/09 08:28:18;;;;;;;19.67;11.38;;;25.40;51.80;;;;;;5010553;28;20448;-67
2022/05/09 08:30:44;;;;;;;15.75;11.20;;;25.80;40.50;;;;;;5018210;28;20030;-67
2022/05/09 08:33:17;;;;;;;15.73;10.82;;;26.40;40.40;;;;;;5020172;28;20496;-67
2022/05/09 08:35:48;;;;;;;23.02;11.30;;;26.10;51.30;;;;;;5020224;28;20045;-67
2022/05/09 08:38:14;;;;;;;18.10;9.60;;;26.70;51.00;;;;;;5023265;28;20489;-67
2022/05/09 08:40:53;;;;;;;16.90;10.40;;;27.00;38.00;;;;;;5009411;28;20411;-67
2022/05/09 08:43:51;;;;;;;15.65;9.48;;;27.00;36.80;;;;;;5025505;28;20091;-68
2022/05/09 08:46:23;;;;;;;14.23;8.68;;;26.30;47.70;;;;;;5024318;28;20617;-68
2022/05/09 08:49:16;;;;;;;15.25;10.80;;;25.90;48.10;;;;;;5020327;28;20038;-68
2022/05/09 08:52:08;;;;;;;16.73;10.32;;;26.50;41.60;;;;;;5009840;28;20085;-68
2022/05/09 08:54:35;;;;;;;16.02;10.43;;;25.50;51.10;;;;;;4983166;28;20085;-67
2022/05/09 08:57:07;;;;;;;18.10;11.02;;;26.20;38.20;;;;;;4983357;28;20058;-68
2022/05/09 08:59:38;;;;;;;18.77;10.77;;;26.50;50.60;;;;;;4990487;28;20044;-68
2022/05/09 09:02:44;;;;;;;15.68;10.40;;;26.30;38.90;;;;;;4978674;28;20022;-67
2022/05/09 09:05:13;;;;;;;16.15;10.80;;;25.50;50.60;;;;;;4946935;28;20047;-68
2022/05/09 09:07:58;;;;;;;15.98;10.55;;;26.60;45.50;;;;;;4951850;28;20046;-68
2022/05/09 09:10:32;;;;;;;18.40;10.85;;;26.10;50.50;;;;;;4952859;28;20065;-68
2022/05/09 09:13:19;;;;;;;16.75;11.23;;;25.80;51.20;;;;;;4959252;28;20062;-67
2022/05/09 09:16:19;;;;;;;20.02;11.55;;;26.40;51.70;;;;;;4958383;28;20122;-68
2022/05/09 09:19:17;;;;;;;19.80;10.88;;;26.30;40.00;;;;;;4949736;28;20091;-68
2022/05/09 09:22:04;;;;;;;17.17;12.80;;;26.80;49.30;;;;;;4956323;28;20506;-68
2022/05/09 09:24:54;;;;;;;15.20;11.10;;;26.70;38.70;;;;;;4958423;28;20101;-68
2022/05/09 09:27:40;;;;;;;16.20;10.18;;;27.10;46.60;;;;;;4958122;28;20485;-68
2022/05/09 09:30:11;;;;;;;18.45;11.15;;;26.60;46.60;;;;;;4958306;28;20055;-68
2022/05/09 09:32:50;;;;;;;15.73;11.30;;;27.60;45.70;;;;;;4962551;28;20035;-68
2022/05/09 09:35:26;;;;;;;17.70;10.68;;;27.40;45.00;;;;;;4948540;28;20586;-68
2022/05/09 09:37:54;;;;;;;16.90;10.98;;;26.90;43.50;;;;;;4948670;28;20027;-68
2022/05/09 09:40:20;;;;;;;17.13;10.38;;;27.40;44.20;;;;;;4968695;28;20125;-68
2022/05/09 09:42:46;;;;;;;15.63;10.10;;;;;;;;;;5015957;28;20067;-68
2022/05/09 09:45:25;;;;;;;15.45;9.13;;;28.10;44.60;;;;;;5018942;28;20042;-68
2022/05/09 09:48:09;;;;;;;15.70;10.13;;;28.00;43.30;;;;;;5018979;28;20018;-68
2022/05/09 09:50:36;;;;;;;13.60;9.95;;;27.30;42.20;;;;;;5006006;28;20409;-67
2022/05/09 09:53:02;;;;;;;15.82;9.23;;;27.70;33.90;;;;;;5008200;28;20026;-68
2022/05/09 09:55:29;;;;;;;14.05;8.95;;;28.70;43.20;;;;;;5024729;28;20116;-68
2022/05/09 09:57:57;;;;;;;12.73;8.38;;;28.50;41.20;;;;;;5018747;28;20033;-68
2022/05/09 10:00:29;;;;;;;15.27;9.65;;;28.50;39.40;;;;;;5019094;28;20515;-67
2022/05/09 10:03:13;;;;;;;15.35;9.57;;;27.70;37.90;;;;;;5016048;28;20026;-68
2022/05/09 10:05:41;;;;;;;14.75;9.57;;;29.00;38.70;;;;;;5008197;28;20033;-68
2022/05/09 10:08:20;;;;;;;13.57;8.85;;;29.80;38.00;;;;;;5022952;28;20029;-68
2022/05/09 10:10:56;;;;;;;18.90;9.05;;;29.70;39.30;;;;;;5008212;28;20070;-68
2022/05/09 10:13:23;;;;;;;13.27;7.80;;;29.70;37.70;;;;;;5014882;28;20032;-68
2022/05/09 10:16:02;;;;;;;17.05;7.68;;;29.60;36.70;;;;;;5017480;28;20099;-68
2022/05/09 10:18:32;;;;;;;15.13;7.00;;;29.40;29.60;;;;;;5018955;28;20067;-67
2022/05/09 10:21:01;;;;;;;14.20;6.77;;;29.00;39.00;;;;;;5015726;28;20085;-67
2022/05/09 10:26:25;;;;;;;10.63;6.32;;;29.50;34.20;;;;;;4994484;28;20084;-67
2022/05/09 10:28:58;;;;;;;10.40;6.25;;;30.20;36.70;;;;;;5011251;28;20041;-68
2022/05/09 10:31:36;;;;;;;12.80;7.40;;;30.40;32.80;;;;;;5023560;28;20073;-68
2022/05/09 10:34:09;;;;;;;11.15;6.90;;;30.80;32.60;;;;;;5020177;28;20254;-67
2022/05/09 10:36:52;;;;;;;12.00;5.97;;;30.70;31.00;;;;;;5018945;28;20026;-68
2022/05/09 10:39:20;;;;;;;11.43;6.20;;;30.80;33.00;;;;;;5008792;28;20036;-67
2022/05/09 10:41:50;;;;;;;12.75;6.15;;;31.30;29.70;;;;;;5012552;28;20030;-67
2022/05/09 10:44:19;;;;;;;9.10;5.82;;;31.40;29.60;;;;;;5010828;28;20037;-67
2022/05/09 10:46:52;;;;;;;10.05;5.20;;;31.30;29.30;;;;;;5027604;28;20033;-67
2022/05/09 10:49:42;;;;;;;13.43;5.78;;;32.00;28.90;;;;;;5018460;28;20038;-67
2022/05/09 10:53:02;;;;;;;11.63;5.95;;;32.20;29.70;;;;;;5011651;28;20030;-67
2022/05/09 10:55:38;;;;;;;10.85;5.60;;;30.50;32.20;;;;;;4974765;28;20522;-67
2022/05/09 10:58:34;;;;;;;8.05;5.40;;;30.70;29.90;;;;;;4974450;28;20019;-67
2022/05/09 11:01:13;;;;;;;10.48;4.55;;;32.70;29.50;;;;;;4974262;28;20039;-67
2022/05/09 11:03:41;;;;;;;9.43;5.22;;;32.20;26.60;;;;;;4973132;28;20042;-67
2022/05/09 11:06:21;;;;;;;9.48;4.85;;;33.50;28.50;;;;;;4973203;28;20035;-67
2022/05/09 11:09:10;;;;;;;9.35;4.57;;;32.30;27.50;;;;;;4978580;28;20035;-67
2022/05/09 11:11:55;;;;;;;7.68;4.65;;;32.40;25.20;;;;;;4962272;28;20121;-67
2022/05/09 11:14:50;;;;;;;8.45;3.70;;;33.10;26.40;;;;;;4958266;28;20038;-67
2022/05/09 11:17:53;;;;;;;9.10;5.57;;;33.20;27.60;;;;;;4963729;28;20502;-67
2022/05/09 11:20:46;;;;;;;8.80;4.32;;;33.60;27.00;;;;;;4984307;28;20048;-67
2022/05/09 11:23:17;;;;;;;8.27;5.20;;;33.10;25.00;;;;;;4970022;28;20056;-67
2022/05/09 11:26:00;;;;;;;7.63;4.68;;;33.50;24.80;;;;;;4984188;28;20042;-67
2022/05/09 11:28:53;;;;;;;10.75;4.38;;;34.40;23.10;;;;;;5027170;28;20143;-68
2022/05/09 11:31:19;;;;;;;8.27;5.30;;;;;;;;;;5021704;28;20564;-67
2022/05/09 11:34:21;;;;;;;9.38;5.65;;;32.70;24.80;;;;;;5018176;28;20091;-67
2022/05/09 11:37:22;;;;;;;10.95;5.60;;;32.80;30.30;;;;;;5021108;28;20476;-67
2022/05/09 11:40:16;;;;;;;11.10;5.68;;;32.10;25.90;;;;;;5011468;28;20033;-67
2022/05/09 11:45:44;;;;;;;7.03;3.90;;;34.40;23.50;;;;;;5016263;28;20077;-67
2022/05/09 11:48:21;;;;;;;7.35;3.78;;;35.50;20.90;;;;;;5014603;28;20432;-67
2022/05/09 11:50:56;;;;;;;7.40;3.33;;;36.60;20.80;;;;;;5018219;28;20025;-67
2022/05/09 11:53:27;;;;;;;6.93;3.28;;;37.00;20.60;;;;;;5009907;28;20409;-68
2022/05/09 11:55:54;;;;;;;5.38;2.67;;;36.10;21.80;;;;;;5026042;28;20041;-67
2022/05/09 11:58:21;;;;;;;6.57;2.60;;;38.30;18.50;;;;;;5025247;28;20025;-68
2022/05/09 12:00:49;;;;;;;5.57;2.60;;;39.10;18.10;;;;;;5011209;28;20018;-68
2022/05/09 12:03:35;;;;;;;7.60;3.40;;;39.80;17.20;;;;;;5010820;28;20025;-68
2022/05/09 12:06:04;;;;;;;8.85;3.20;;;40.40;16.40;;;;;;5012839;28;20052;-68
2022/05/09 12:08:45;;;;;;;6.93;3.40;;;40.30;15.70;;;;;;5021348;28;20107;-67
2022/05/09 12:11:33;;;;;;;9.50;3.05;;;38.00;17.80;;;;;;5009293;28;20034;-67
2022/05/09 12:14:04;;;;;;;6.57;3.33;;;38.40;17.30;;;;;;5021265;28;20126;-68
2022/05/09 12:16:36;;;;;;;5.13;2.97;;;37.80;18.00;;;;;;5024285;28;20033;-67
2022/05/09 12:19:20;;;;;;;7.88;2.97;;;37.40;21.30;;;;;;5022205;28;20508;-67
2022/05/09 12:22:24;;;;;;;7.47;3.05;;;35.70;20.40;;;;;;5010554;28;20052;-67
2022/05/09 12:24:50;;;;;;;6.65;3.22;;;;;;;;;;5007166;28;20072;-67
2022/05/09 12:27:40;;;;;;;6.45;3.00;;;36.60;17.60;;;;;;5014713;28;20033;-68
2022/05/09 12:30:14;;;;;;;6.93;3.00;;;38.20;18.30;;;;;;5013102;28;20034;-67
2022/05/09 12:32:44;;;;;;;7.63;2.63;;;39.30;17.00;;;;;;5020119;28;20062;-67
2022/05/09 12:35:11;;;;;;;8.18;3.20;;;39.40;16.80;;;;;;5007541;28;20157;-67
2022/05/09 12:37:45;;;;;;;7.60;3.17;;;39.30;17.20;;;;;;5025191;28;20071;-67
2022/05/09 12:40:24;;;;;;;5.93;3.00;;;39.30;18.10;;;;;;5010414;28;20033;-67
2022/05/09 12:42:57;;;;;;;7.80;3.33;;;39.90;17.10;;;;;;5012823;28;20041;-68
2022/05/09 12:45:24;;;;;;;6.53;2.95;;;40.20;16.50;;;;;;5015277;28;20022;-67
2022/05/09 12:47:50;;;;;;;8.38;3.17;;;40.10;17.20;;;;;;5010581;28;20512;-67
2022/05/09 12:50:27;;;;;;;6.00;2.75;;;41.20;17.10;;;;;;5022551;28;20186;-68
2022/05/09 12:53:01;;;;;;;5.47;2.72;;;40.70;15.70;;;;;;5008616;28;20033;-68
2022/05/09 12:55:52;;;;;;;5.45;2.60;;;41.10;15.50;;;;;;5025551;28;20036;-68
2022/05/09 12:58:36;;;;;;;6.55;2.60;;;41.00;16.20;;;;;;5017500;28;20033;-67
2022/05/09 13:01:29;;;;;;;8.15;2.70;;;41.40;16.80;;;;;;5021169;28;20036;-67
2022/05/09 13:04:06;;;;;;;6.00;2.58;;;41.20;15.40;;;;;;5014927;28;20034;-68
2022/05/09 13:06:37;;;;;;;5.47;2.50;;;41.10;14.90;;;;;;5015942;28;20436;-68
2022/05/09 13:09:20;;;;;;;4.63;2.20;;;38.50;14.80;;;;;;5015866;28;20033;-67
2022/05/09 13:11:53;;;;;;;12.65;2.88;;;40.30;15.30;;;;;;5009544;28;20026;-67
2022/05/09 13:14:57;;;;;;;6.97;2.50;;;41.10;17.20;;;;;;5021950;28;20073;-67
2022/05/09 13:17:37;;;;;;;5.20;2.55;;;39.50;16.50;;;;;;4995460;28;20049;-67